Time;durP1;ratioP1;P1;durP2;ratioP2;P2;SDS_P1;SDS_P2;PMS_P1;PMS_P2;Temp;Humidity;BMP_temperature;BMP_pressure;BME280_temperature;BME280_humidity;BME280_pressure;Samples;Min_cycle;Max_cycle;Signal;HPM_P1;HPM_P2
2022/01/27 00:01:02;;;;;;;35.40;19.50;;;;;;;2.76;91.77;102611.78;2106544;28;20031;-70
2022/01/27 00:02:42;;;;;;;48.50;21.75;;;;;;;2.77;92.34;102604.91;2105690;28;20054;-69
2022/01/27 00:03:31;;;;;;;36.47;18.10;;;;;;;2.75;92.14;102607.47;2105622;28;20044;-68
2022/01/27 00:04:47;;;;;;;36.65;19.42;;;;;;;2.76;91.76;102609.19;2105689;28;20052;-68
2022/01/27 00:06:02;;;;;;;43.80;21.10;;;;;;;2.75;91.83;102602.31;2106053;28;20016;-68
2022/01/27 00:07:03;;;;;;;38.05;20.58;;;;;;;2.76;92.13;102598.00;2106466;28;20583;-68
2022/01/27 00:09:22;;;;;;;42.20;19.88;;;;;;;2.76;91.98;102593.72;2106019;28;20044;-68
2022/01/27 00:10:47;;;;;;;40.85;19.88;;;;;;;2.77;92.08;102594.59;2106459;28;20062;-68
2022/01/27 00:11:47;;;;;;;41.47;19.88;;;;;;;2.77;92.48;102598.03;2106200;28;20059;-67
2022/01/27 00:12:47;;;;;;;35.60;19.40;;;;;;;2.78;91.79;102596.31;2106365;28;20047;-70
2022/01/27 00:13:58;;;;;;;40.33;20.53;;;;;;;2.79;92.06;102598.94;2106440;28;20465;-70
2022/01/27 00:15:09;;;;;;;39.40;20.83;;;;;;;2.77;91.98;102592.88;2106416;28;20107;-68
2022/01/27 00:16:17;;;;;;;39.58;20.58;;;;;;;2.77;92.30;102584.28;2106468;28;20028;-70
2022/01/27 00:17:27;;;;;;;45.40;22.55;;;;;;;2.76;92.56;102578.25;2106363;28;20016;-70
2022/01/27 00:18:29;;;;;;;37.42;18.48;;;;;;;2.76;92.55;102578.25;2105664;28;20423;-72
2022/01/27 00:19:30;;;;;;;47.75;21.65;;;;;;;2.76;92.52;102578.25;2105724;28;20031;-70
2022/01/27 00:20:31;;;;;;;35.67;18.93;;;;;;;2.77;92.02;102572.25;2106384;28;20472;-69
2022/01/27 00:21:32;;;;;;;40.60;20.58;;;;;;;2.78;92.15;102558.53;2106280;28;20107;-70
2022/01/27 00:22:32;;;;;;;37.92;21.30;;;;;;;2.79;92.09;102551.66;2105632;28;20039;-69
2022/01/27 00:23:33;;;;;;;40.47;21.23;;;;;;;2.78;92.47;102545.63;2105752;28;20564;-69
2022/01/27 00:24:33;;;;;;;43.47;20.05;;;;;;;2.78;92.07;102553.38;2106360;28;20036;-68
2022/01/27 00:25:34;;;;;;;37.37;19.80;;;;;;;2.78;92.05;102548.22;2106316;28;20036;-68
2022/01/27 00:26:34;;;;;;;35.50;19.47;;;;;;;2.79;91.96;102547.38;2106325;28;20028;-70
2022/01/27 00:27:35;;;;;;;41.83;19.37;;;;;;;2.79;92.13;102544.78;2107687;28;20099;-68
2022/01/27 00:28:35;;;;;;;38.50;19.43;;;;;;;2.81;91.75;102550.81;2107136;28;20063;-68
2022/01/27 00:29:35;;;;;;;38.90;20.03;;;;;;;2.82;91.65;102547.44;2098777;28;20632;-68
2022/01/27 00:30:37;;;;;;;39.37;19.43;;;;;;;2.83;91.73;102549.16;2107267;28;20110;-67
2022/01/27 00:31:38;;;;;;;42.80;20.95;;;;;;;2.86;91.57;102557.78;2107204;28;20326;-67
2022/01/27 00:32:38;;;;;;;40.43;20.40;;;;;;;2.86;91.62;102548.34;2107299;28;20047;-68
2022/01/27 00:33:38;;;;;;;42.43;19.63;;;;;;;2.86;91.45;102558.66;2107831;28;20838;-67
2022/01/27 00:34:39;;;;;;;38.72;18.75;;;;;;;2.88;91.39;102556.09;2107819;28;20161;-68
2022/01/27 00:35:39;;;;;;;39.73;21.23;;;;;;;2.87;91.61;102555.22;2107829;28;20027;-70
2022/01/27 00:36:39;;;;;;;40.73;21.47;;;;;;;2.89;91.41;102557.84;2107805;28;20024;-70
2022/01/27 00:37:40;;;;;;;39.93;19.10;;;;;;;2.90;91.23;102560.44;2107177;28;20023;-69
2022/01/27 00:38:40;;;;;;;36.95;18.85;;;;;;;2.91;91.37;102562.16;2107163;28;20075;-69
2022/01/27 00:39:41;;;;;;;43.50;22.50;;;;;;;2.91;91.24;102557.00;2107916;28;20111;-70
2022/01/27 00:40:41;;;;;;;41.20;19.67;;;;;;;2.90;91.46;102564.72;2107847;28;20465;-69
2022/01/27 00:41:41;;;;;;;44.10;22.83;;;;;;;2.91;91.20;102561.31;2107699;28;20165;-67
2022/01/27 00:42:43;;;;;;;39.53;18.43;;;;;;;2.91;91.74;102554.44;2107778;28;20047;-71
2022/01/27 00:43:44;;;;;;;41.95;19.55;;;;;;;2.91;91.34;102562.16;2107131;28;20019;-67
2022/01/27 00:44:44;;;;;;;39.65;20.00;;;;;;;2.92;91.50;102557.91;2107023;28;20103;-67
2022/01/27 00:45:44;;;;;;;38.80;20.00;;;;;;;2.91;91.39;102556.16;2107158;28;20027;-72
2022/01/27 00:46:45;;;;;;;38.00;20.10;;;;;;;2.92;91.76;102557.91;2107859;28;20028;-70
2022/01/27 00:47:45;;;;;;;35.63;20.13;;;;;;;2.90;91.46;102557.88;2107787;28;20435;-68
2022/01/27 00:48:48;;;;;;;40.67;21.70;;;;;;;2.92;91.64;102558.78;2107704;28;20146;-69
2022/01/27 00:49:48;;;;;;;41.45;20.40;;;;;;;2.91;91.80;102551.00;2106971;28;20016;-68
2022/01/27 00:50:54;;;;;;;46.87;21.50;;;;;;;2.91;91.79;102545.84;2107094;28;20397;-71
2022/01/27 00:51:56;;;;;;;41.60;21.77;;;;;;;2.91;91.86;102553.59;2107592;28;20023;-72
2022/01/27 00:52:58;;;;;;;39.92;21.27;;;;;;;2.93;91.76;102549.31;2107620;28;20034;-70
2022/01/27 00:54:06;;;;;;;41.03;20.35;;;;;;;2.93;91.72;102544.16;2106923;28;20119;-70
2022/01/27 00:55:08;;;;;;;39.95;21.45;;;;;;;2.92;91.54;102532.97;2107162;28;20024;-71
2022/01/27 00:56:21;;;;;;;41.90;21.35;;;;;;;2.93;91.98;102533.81;2107536;28;20048;-69
2022/01/27 00:58:48;;;;;;;40.85;21.40;;;;;;;2.91;91.92;102535.53;2107192;28;20389;-72
2022/01/27 00:59:55;;;;;;;38.58;18.17;;;;;;;2.92;91.74;102532.09;2107559;28;20016;-70
2022/01/27 01:01:01;;;;;;;36.80;19.25;;;;;;;2.92;92.03;102526.94;2107620;28;20389;-70
2022/01/27 01:02:11;;;;;;;34.63;19.10;;;;;;;2.93;91.75;102539.88;2107479;28;20078;-68
2022/01/27 01:03:24;;;;;;;40.15;20.77;;;;;;;2.93;91.86;102533.81;2107563;28;20020;-68
2022/01/27 01:04:30;;;;;;;31.05;17.60;;;;;;;2.93;91.71;102533.81;2107520;28;20027;-71
2022/01/27 01:06:50;;;;;;;41.88;20.75;;;;;;;2.93;92.01;102531.25;2107553;28;20028;-70
2022/01/27 01:07:55;;;;;;;;;;;;;;;2.94;91.87;102525.25;2107238;28;20031;-67
2022/01/27 01:14:22;;;;;;;37.60;19.48;;;;;;;2.98;91.87;102532.22;2107625;28;20066;-69
2022/01/27 01:15:16;;;;;;;38.53;18.75;;;;;;;2.97;91.82;102525.28;2107377;28;20031;-68
2022/01/27 01:17:52;;;;;;;36.28;18.40;;;;;;;3.00;91.53;102529.63;2107384;28;20481;-69
2022/01/27 01:19:06;;;;;;;40.83;18.25;;;;;;;2.99;91.57;102528.78;2107566;28;20028;-69
2022/01/27 01:31:13;;;;;;;38.70;20.77;;;;;;;3.06;91.34;102499.69;2107505;28;20477;-67
2022/01/27 01:32:43;;;;;;;32.95;19.60;;;;;;;3.07;91.33;102500.53;2107449;28;20480;-71
2022/01/27 01:33:37;;;;;;;30.02;16.70;;;;;;;3.06;91.70;102504.84;2107255;28;20035;-70
2022/01/27 01:34:44;;;;;;;36.03;18.70;;;;;;;3.05;91.73;102508.22;2106656;28;20016;-70
2022/01/27 01:35:48;;;;;;;36.67;18.52;;;;;;;3.05;91.58;102508.22;2106813;28;20408;-68
2022/01/27 01:37:01;;;;;;;41.90;19.65;;;;;;;3.07;91.56;102510.84;2107332;28;20027;-70
2022/01/27 01:38:02;;;;;;;36.53;18.48;;;;;;;3.07;91.32;102500.53;2106321;28;20054;-69
2022/01/27 01:39:04;;;;;;;36.97;20.83;;;;;;;3.07;91.48;102493.66;2106605;28;20074;-70
2022/01/27 01:40:07;;;;;;;35.97;18.42;;;;;;;3.07;91.41;102496.25;2107308;28;20538;-68
2022/01/27 01:41:07;;;;;;;34.15;18.45;;;;;;;3.10;91.01;102505.72;2107269;28;20162;-67
2022/01/27 01:42:10;;;;;;;35.67;19.37;;;;;;;3.14;90.79;102506.63;2107122;28;20020;-69
2022/01/27 01:43:10;;;;;;;38.10;18.92;;;;;;;3.14;91.03;102486.00;2106468;28;20485;-67
2022/01/27 01:44:11;;;;;;;35.70;18.13;;;;;;;3.14;91.17;102484.28;2106666;28;20066;-67
2022/01/27 01:45:14;;;;;;;36.55;18.80;;;;;;;3.16;90.70;102484.31;2106471;28;20028;-68
2022/01/27 01:46:15;;;;;;;36.97;19.77;;;;;;;3.16;90.93;102468.84;2098633;28;20021;-71
2022/01/27 01:47:17;;;;;;;37.77;19.50;;;;;;;3.16;91.12;102468.84;2106657;28;20038;-71
2022/01/27 01:48:18;;;;;;;34.90;19.40;;;;;;;3.15;91.00;102459.38;2107242;28;20478;-69
2022/01/27 01:49:22;;;;;;;38.08;19.52;;;;;;;3.16;91.09;102463.69;2107204;28;20393;-70
2022/01/27 01:50:22;;;;;;;39.28;18.77;;;;;;;3.16;90.88;102456.81;2107174;28;20032;-70
2022/01/27 01:51:27;;;;;;;36.67;19.50;;;;;;;3.17;90.70;102455.97;2106546;28;20419;-69
2022/01/27 01:52:27;;;;;;;41.28;20.63;;;;;;;3.18;90.92;102459.44;2106697;28;20028;-66
2022/01/27 01:53:28;;;;;;;33.57;19.27;;;;;;;3.17;90.76;102455.97;2107238;28;20325;-68
2022/01/27 01:54:29;;;;;;;38.53;18.88;;;;;;;3.16;90.81;102449.09;2107145;28;20028;-68
2022/01/27 01:55:31;;;;;;;35.40;19.50;;;;;;;3.16;91.16;102448.19;2106278;28;20483;-68
2022/01/27 01:56:32;;;;;;;38.45;19.25;;;;;;;3.18;91.33;102451.69;2106599;28;20469;-66
2022/01/27 01:57:33;;;;;;;36.47;20.35;;;;;;;3.16;91.15;102458.53;2107170;28;20028;-68
2022/01/27 01:58:33;;;;;;;36.33;17.00;;;;;;;3.16;91.32;102466.25;2107170;28;20024;-70
2022/01/27 01:59:36;;;;;;;35.63;19.43;;;;;;;3.18;90.92;102462.84;2107136;28;20058;-66
2022/01/27 02:00:37;;;;;;;36.55;19.50;;;;;;;3.19;90.78;102464.59;2107153;28;20024;-68
2022/01/27 02:01:38;;;;;;;39.17;19.93;;;;;;;3.20;90.87;102471.50;2107040;28;20134;-68
2022/01/27 02:02:40;;;;;;;33.50;17.63;;;;;;;3.19;90.79;102485.22;2106989;28;20016;-69
2022/01/27 02:03:40;;;;;;;35.22;18.80;;;;;;;3.20;91.03;102465.47;2107075;28;20028;-70
2022/01/27 02:04:42;;;;;;;34.00;18.70;;;;;;;3.19;91.00;102464.59;2107088;28;20119;-70
2022/01/27 02:05:49;;;;;;;36.58;18.60;;;;;;;3.18;91.20;102455.13;2107040;28;20032;-68
2022/01/27 02:06:56;;;;;;;33.58;19.40;;;;;;;3.19;91.16;102461.16;2107064;28;20016;-70
2022/01/27 02:09:33;;;;;;;34.97;18.05;;;;;;;3.21;91.14;102464.59;2106798;28;20047;-71
2022/01/27 02:18:10;;;;;;;33.50;17.20;;;;;;;3.23;91.05;102431.97;2106960;28;20036;-68
2022/01/27 02:19:11;;;;;;;35.60;18.20;;;;;;;3.25;90.79;102426.84;2107027;28;20027;-69
2022/01/27 02:20:12;;;;;;;35.45;19.52;;;;;;;3.25;90.70;102419.94;2107012;28;20024;-69
2022/01/27 02:21:13;;;;;;;36.00;20.50;;;;;;;3.26;90.95;102413.06;2107017;28;20110;-69
2022/01/27 02:22:13;;;;;;;30.93;16.93;;;;;;;3.26;91.08;102421.69;2106240;28;20024;-69
2022/01/27 02:23:13;;;;;;;30.10;18.10;;;;;;;3.25;91.01;102414.78;2106359;28;20028;-66
2022/01/27 02:24:15;;;;;;;38.43;17.97;;;;;;;3.26;90.75;102413.94;2106975;28;20040;-71
2022/01/27 02:25:17;;;;;;;34.15;19.02;;;;;;;3.25;90.99;102407.03;2106240;28;20040;-70
2022/01/27 02:26:18;;;;;;;37.72;19.88;;;;;;;3.22;91.22;102402.72;2106218;28;20020;-69
2022/01/27 02:27:19;;;;;;;36.37;18.70;;;;;;;3.21;91.06;102403.56;2106954;28;20024;-68
2022/01/27 02:28:20;;;;;;;34.38;18.85;;;;;;;3.21;91.59;102406.13;2106170;28;20024;-68
2022/01/27 02:29:21;;;;;;;34.57;18.20;;;;;;;3.23;91.07;102406.16;2106356;28;20024;-68
2022/01/27 02:30:23;;;;;;;31.92;17.15;;;;;;;3.24;90.96;102412.19;2106784;28;20485;-68
2022/01/27 02:31:23;;;;;;;36.20;18.55;;;;;;;3.26;90.78;102413.94;2107029;28;20016;-70
2022/01/27 02:32:24;;;;;;;34.03;17.43;;;;;;;3.27;91.08;102419.97;2106904;28;20523;-67
2022/01/27 02:33:32;;;;;;;34.38;19.65;;;;;;;3.27;91.14;102410.53;2106859;28;20477;-69
2022/01/27 02:34:33;;;;;;;35.50;19.45;;;;;;;3.27;90.94;102414.81;2106728;28;20031;-67
2022/01/27 02:35:34;;;;;;;34.78;17.92;;;;;;;3.28;90.65;102421.72;2106905;28;20031;-69
2022/01/27 02:36:35;;;;;;;34.63;16.73;;;;;;;3.29;90.81;102426.88;2106824;28;20024;-70
2022/01/27 02:37:35;;;;;;;30.95;18.15;;;;;;;3.31;91.03;102427.78;2106871;28;20063;-68
2022/01/27 02:38:36;;;;;;;32.37;17.27;;;;;;;3.32;90.85;102413.16;2106885;28;20418;-69
2022/01/27 02:39:36;;;;;;;36.30;19.40;;;;;;;3.31;91.09;102422.63;2106887;28;20039;-68
2022/01/27 02:40:49;;;;;;;38.10;19.10;;;;;;;3.31;91.25;102420.03;2106912;28;20031;-70
2022/01/27 02:41:49;;;;;;;42.50;19.05;;;;;;;3.32;91.32;102424.34;2106783;28;20027;-69
2022/01/27 02:42:49;;;;;;;32.37;17.53;;;;;;;3.32;91.33;102420.91;2106707;28;20381;-68
2022/01/27 02:43:49;;;;;;;32.47;18.37;;;;;;;3.31;91.34;102404.56;2106830;28;20075;-70
2022/01/27 02:44:55;;;;;;;39.63;19.23;;;;;;;3.32;91.15;102408.84;2106120;28;20447;-68
2022/01/27 02:46:04;;;;;;;34.65;18.73;;;;;;;3.32;91.37;102413.16;2106236;28;20035;-68
2022/01/27 02:47:05;;;;;;;34.53;17.42;;;;;;;3.31;91.29;102401.09;2106731;28;20110;-69
2022/01/27 02:48:05;;;;;;;35.22;18.50;;;;;;;3.31;91.67;102395.94;2106784;28;20028;-68
2022/01/27 02:49:05;;;;;;;33.58;18.23;;;;;;;3.30;91.73;102400.25;2106718;28;20042;-70
2022/01/27 02:50:06;;;;;;;31.03;15.90;;;;;;;3.30;91.87;102399.38;2106177;28;20106;-69
2022/01/27 02:51:07;;;;;;;37.50;17.83;;;;;;;3.29;91.94;102403.66;2106678;28;20027;-70
2022/01/27 02:52:08;;;;;;;32.67;17.57;;;;;;;3.30;91.79;102405.41;2106732;28;20051;-69
2022/01/27 02:53:08;;;;;;;;;;;;;;;3.32;91.84;102400.28;2107237;28;20028;-69
2022/01/27 02:54:09;;;;;;;36.90;16.38;;;;;;;3.32;91.75;102403.69;2105953;28;19970;-68
2022/01/27 02:55:10;;;;;;;32.50;16.77;;;;;;;3.31;91.93;102396.81;2106069;28;20036;-70
2022/01/27 02:56:10;;;;;;;31.02;17.33;;;;;;;3.31;91.83;102401.09;2106675;28;20043;-71
2022/01/27 02:57:10;;;;;;;30.70;15.23;;;;;;;3.30;92.19;102394.19;2106771;28;20044;-69
2022/01/27 02:58:11;;;;;;;34.00;17.20;;;;;;;3.32;91.77;102402.84;2106775;28;20048;-67
2022/01/27 02:59:12;;;;;;;31.97;18.00;;;;;;;3.31;92.06;102396.81;2106741;28;20027;-69
2022/01/27 03:00:13;;;;;;;31.35;17.40;;;;;;;3.31;92.03;102395.94;2106692;28;20027;-68
2022/01/27 03:01:19;;;;;;;33.10;19.38;;;;;;;3.31;92.28;102386.50;2106753;28;20052;-69
2022/01/27 03:02:20;;;;;;;31.10;16.90;;;;;;;3.33;92.08;102389.97;2106556;28;20474;-67
2022/01/27 03:03:20;;;;;;;33.92;17.83;;;;;;;3.33;91.82;102381.34;2106719;28;20035;-68
2022/01/27 03:04:22;;;;;;;30.93;16.57;;;;;;;3.37;91.84;102382.25;2106765;28;20030;-68
2022/01/27 03:05:22;;;;;;;32.85;16.95;;;;;;;3.37;91.90;102383.13;2106700;28;20412;-67
2022/01/27 03:06:23;;;;;;;36.47;17.98;;;;;;;3.37;91.96;102384.81;2106724;28;20032;-69
2022/01/27 03:07:23;;;;;;;33.70;17.33;;;;;;;3.37;91.87;102380.53;2106649;28;20546;-69
2022/01/27 03:08:23;;;;;;;39.93;18.00;;;;;;;3.35;91.95;102375.34;2106664;28;20066;-69
2022/01/27 03:09:23;;;;;;;32.50;16.93;;;;;;;3.35;91.80;102362.44;2106611;28;20020;-71
2022/01/27 03:10:29;;;;;;;34.20;18.53;;;;;;;3.34;91.97;102354.69;2106704;28;20047;-69
2022/01/27 03:11:48;;;;;;;37.67;19.48;;;;;;;3.32;92.12;102346.91;2106640;28;20028;-70
2022/01/27 03:12:56;;;;;;;28.02;16.63;;;;;;;3.31;92.18;102358.09;2105908;28;20016;-68
2022/01/27 03:13:56;;;;;;;33.42;19.27;;;;;;;3.31;92.25;102352.94;2106124;28;20609;-70
2022/01/27 03:14:58;;;;;;;35.13;19.00;;;;;;;3.31;92.24;102354.63;2106752;28;20206;-69
2022/01/27 03:15:58;;;;;;;29.35;16.42;;;;;;;3.29;92.49;102357.19;2106647;28;20362;-69
2022/01/27 03:17:00;;;;;;;34.23;17.90;;;;;;;3.29;92.08;102351.19;2106660;28;20014;-68
2022/01/27 03:18:00;;;;;;;31.92;17.17;;;;;;;3.29;92.46;102366.69;2106695;28;20054;-70
2022/01/27 03:19:01;;;;;;;37.33;17.37;;;;;;;3.30;92.40;102374.44;2106573;28;20447;-70
2022/01/27 03:20:01;;;;;;;34.80;17.90;;;;;;;3.31;92.73;102365.84;2106639;28;20020;-68
2022/01/27 03:21:04;;;;;;;38.97;18.33;;;;;;;3.31;92.15;102376.16;2106630;28;20066;-67
2022/01/27 03:22:06;;;;;;;32.05;16.98;;;;;;;3.32;92.54;102372.72;2106537;28;20032;-70
2022/01/27 03:23:07;;;;;;;32.35;16.75;;;;;;;3.31;92.60;102371.00;2106626;28;20107;-71
2022/01/27 03:24:07;;;;;;;37.92;17.50;;;;;;;3.32;92.61;102372.72;2106580;28;20473;-69
2022/01/27 03:25:08;;;;;;;39.30;20.00;;;;;;;3.32;92.83;102369.31;2106617;28;20076;-67
2022/01/27 03:26:08;;;;;;;36.15;17.23;;;;;;;3.32;92.53;102357.25;2105831;28;20108;-69
2022/01/27 03:27:20;;;;;;;38.23;19.50;;;;;;;3.33;92.83;102347.81;2106021;28;20453;-66
2022/01/27 03:28:24;;;;;;;;;;;;;;;3.32;92.71;102349.50;2106985;28;20024;-67
2022/01/27 03:29:25;;;;;;;33.42;16.60;;;;;;;3.33;92.74;102352.97;2105926;28;19912;-70
2022/01/27 03:30:26;;;;;;;31.30;18.48;;;;;;;3.33;92.38;102347.81;2106017;28;20477;-69
2022/01/27 03:31:26;;;;;;;33.40;16.60;;;;;;;3.32;92.53;102336.59;2106540;28;20027;-67
2022/01/27 03:32:27;;;;;;;35.50;18.58;;;;;;;3.31;92.72;102334.88;2106656;28;20369;-69
2022/01/27 03:33:27;;;;;;;34.03;18.30;;;;;;;3.32;92.82;102341.75;2106669;28;20035;-68
2022/01/27 03:34:27;;;;;;;36.63;18.30;;;;;;;3.29;92.85;102335.72;2106584;28;20684;-70
2022/01/27 03:35:28;;;;;;;34.50;15.80;;;;;;;3.27;92.82;102327.94;2105900;28;20106;-69
2022/01/27 03:36:28;;;;;;;37.10;17.93;;;;;;;3.24;93.29;102338.22;2105992;28;20039;-67
2022/01/27 03:37:28;;;;;;;34.80;17.30;;;;;;;3.23;93.36;102336.50;2106491;28;20521;-69
2022/01/27 03:38:28;;;;;;;36.07;18.37;;;;;;;3.22;93.91;102329.63;2106462;28;20016;-66
2022/01/27 03:39:29;;;;;;;29.30;15.87;;;;;;;3.22;93.49;102339.94;2106545;28;20377;-69
2022/01/27 03:40:29;;;;;;;32.93;16.40;;;;;;;3.23;93.67;102336.50;2105840;28;20126;-68
2022/01/27 03:41:33;;;;;;;36.47;18.53;;;;;;;3.23;93.53;102331.34;2105872;28;20055;-67
2022/01/27 03:42:39;;;;;;;32.80;16.58;;;;;;;3.24;93.74;102338.22;2106459;28;20323;-70
2022/01/27 03:43:39;;;;;;;36.30;17.25;;;;;;;3.22;93.60;102334.78;2106374;28;20047;-68
2022/01/27 03:44:40;;;;;;;30.05;16.45;;;;;;;3.22;93.76;102327.03;2105745;28;20437;-68
2022/01/27 03:45:40;;;;;;;38.93;18.80;;;;;;;3.20;93.70;102341.63;2105843;28;20028;-68
2022/01/27 03:46:40;;;;;;;36.07;17.07;;;;;;;3.20;93.61;102336.44;2106480;28;20020;-69
2022/01/27 03:47:41;;;;;;;37.20;17.10;;;;;;;3.18;93.83;102331.28;2106524;28;20472;-70
2022/01/27 03:48:41;;;;;;;33.10;16.80;;;;;;;3.15;94.17;102332.97;2106442;28;20028;-69
2022/01/27 03:49:41;;;;;;;36.67;17.40;;;;;;;3.12;94.36;102332.91;2106463;28;20024;-69
2022/01/27 03:50:42;;;;;;;30.60;14.30;;;;;;;3.09;94.21;102339.75;2105785;28;20368;-69
2022/01/27 03:51:42;;;;;;;35.93;17.20;;;;;;;3.11;94.44;102338.94;2105897;28;20024;-69
2022/01/27 03:52:42;;;;;;;37.58;17.20;;;;;;;3.10;94.56;102335.47;2106452;28;20032;-68
2022/01/27 03:53:43;;;;;;;38.17;17.63;;;;;;;3.11;94.28;102342.34;2105845;28;20028;-71
2022/01/27 03:54:43;;;;;;;37.03;14.97;;;;;;;3.14;94.09;102338.94;2105841;28;20023;-70
2022/01/27 03:55:44;;;;;;;34.40;16.70;;;;;;;3.18;94.46;102345.91;2105544;28;20285;-71
2022/01/27 03:56:44;;;;;;;34.47;17.17;;;;;;;3.19;94.18;102345.91;2105841;28;20028;-69
2022/01/27 03:57:45;;;;;;;30.97;16.33;;;;;;;3.23;94.37;102341.66;2105982;28;20020;-68
2022/01/27 03:58:45;;;;;;;36.57;16.63;;;;;;;3.26;94.12;102344.28;2105792;28;20047;-68
2022/01/27 03:59:45;;;;;;;32.97;16.53;;;;;;;3.32;94.03;102340.91;2105863;28;20120;-67
2022/01/27 04:00:46;;;;;;;32.20;16.47;;;;;;;3.35;93.66;102335.75;2106523;28;20508;-67
2022/01/27 04:01:46;;;;;;;33.23;15.83;;;;;;;3.36;93.87;102332.34;2108090;28;20032;-66
2022/01/27 04:03:21;;;;;;;34.57;17.03;;;;;;;3.37;93.72;102333.19;2108024;28;20099;-70
2022/01/27 04:04:14;;;;;;;34.00;16.48;;;;;;;3.36;93.96;102319.47;2104048;28;20032;-69
2022/01/27 04:05:14;;;;;;;35.75;17.27;;;;;;;3.38;93.82;102319.47;2108121;28;20024;-67
2022/01/27 04:06:20;;;;;;;36.80;18.27;;;;;;;3.39;94.00;102326.38;2108076;28;20027;-70
2022/01/27 04:07:21;;;;;;;31.42;14.90;;;;;;;3.38;93.94;102309.16;2108040;28;20448;-70
2022/01/27 04:08:22;;;;;;;35.60;17.73;;;;;;;3.37;94.03;102312.56;2107840;28;20029;-67
2022/01/27 04:09:24;;;;;;;36.78;17.20;;;;;;;3.36;93.57;102322.03;2107917;28;20401;-69
2022/01/27 04:10:24;;;;;;;34.13;16.00;;;;;;;3.37;94.14;102317.72;2107997;28;20396;-67
2022/01/27 04:11:25;;;;;;;33.93;17.53;;;;;;;3.39;94.23;102301.41;2107308;28;20034;-68
2022/01/27 04:12:25;;;;;;;34.23;16.57;;;;;;;3.39;94.05;102306.56;2107434;28;20071;-70
2022/01/27 04:13:25;;;;;;;34.87;17.23;;;;;;;3.38;94.23;102309.16;2107277;28;20035;-68
2022/01/27 04:14:26;;;;;;;34.23;16.97;;;;;;;3.39;94.45;102308.28;2107287;28;20024;-69
2022/01/27 04:15:26;;;;;;;37.73;16.23;;;;;;;3.39;94.22;102308.28;2108082;28;20067;-68
2022/01/27 04:16:26;;;;;;;34.43;16.53;;;;;;;3.38;94.31;102304.00;2108000;28;20063;-71
2022/01/27 04:17:26;;;;;;;40.47;18.37;;;;;;;3.37;94.39;102297.94;2107357;28;20121;-70
2022/01/27 04:18:27;;;;;;;35.50;17.00;;;;;;;3.35;94.44;102292.75;2107357;28;20059;-70
2022/01/27 04:19:28;;;;;;;29.95;15.75;;;;;;;3.37;94.43;102291.91;2107971;28;20035;-71
2022/01/27 04:20:28;;;;;;;29.97;15.53;;;;;;;3.35;94.52;102290.19;2107907;28;20024;-70
2022/01/27 04:21:29;;;;;;;36.20;16.42;;;;;;;3.33;94.69;102279.00;2107868;28;20102;-69
2022/01/27 04:22:29;;;;;;;34.30;17.30;;;;;;;3.32;95.07;102281.56;2108040;28;20020;-69
2022/01/27 04:23:29;;;;;;;32.97;16.77;;;;;;;3.32;94.83;102285.00;2107814;28;20461;-68
2022/01/27 04:24:30;;;;;;;31.23;15.40;;;;;;;3.31;94.81;102278.09;2107883;28;20066;-67
2022/01/27 04:25:32;;;;;;;38.17;15.82;;;;;;;3.29;94.71;102289.25;2107138;28;20584;-69
2022/01/27 04:26:58;;;;;;;34.30;15.90;;;;;;;3.27;95.09;102291.81;2107134;28;20031;-70
2022/01/27 04:28:00;;;;;;;33.58;16.20;;;;;;;3.27;94.99;102303.84;2107665;28;20032;-70
2022/01/27 04:29:01;;;;;;;33.95;16.88;;;;;;;3.29;94.98;102299.59;2107132;28;20031;-67
2022/01/27 04:30:04;;;;;;;32.17;16.45;;;;;;;3.32;95.04;102300.47;2107177;28;20058;-68
2022/01/27 04:31:07;;;;;;;32.92;16.67;;;;;;;3.37;94.92;102291.91;2107079;28;20020;-68
2022/01/27 04:32:10;;;;;;;36.38;16.45;;;;;;;3.39;94.62;102295.38;2107042;28;20055;-69
2022/01/27 04:33:10;;;;;;;35.35;17.30;;;;;;;3.38;94.81;102293.66;2107138;28;20385;-67
2022/01/27 04:34:12;;;;;;;37.53;16.03;;;;;;;3.37;94.48;102292.78;2107857;28;20024;-69
2022/01/27 04:35:16;;;;;;;34.70;16.50;;;;;;;3.38;94.72;102288.50;2107705;28;20397;-69
2022/01/27 04:36:24;;;;;;;33.92;17.02;;;;;;;3.38;94.68;102288.50;2107063;28;20429;-69
2022/01/27 04:37:25;;;;;;;36.38;17.08;;;;;;;3.39;95.00;102300.56;2107172;28;20054;-67
2022/01/27 04:38:39;;;;;;;30.40;15.70;;;;;;;3.42;94.54;102298.00;2107706;28;20056;-69
2022/01/27 04:39:52;;;;;;;30.60;13.98;;;;;;;3.43;94.94;102292.88;2107814;28;20039;-67
2022/01/27 04:42:12;;;;;;;31.17;15.20;;;;;;;3.45;94.46;102288.56;2107634;28;20036;-68
2022/01/27 04:44:38;;;;;;;32.65;16.10;;;;;;;3.40;94.93;102281.63;2107173;28;20054;-68
2022/01/27 04:45:50;;;;;;;33.63;16.38;;;;;;;3.36;95.25;102270.41;2107726;28;20134;-71
2022/01/27 04:47:04;;;;;;;31.67;15.60;;;;;;;3.29;94.99;102261.72;2107694;28;20020;-70
2022/01/27 04:48:14;;;;;;;28.83;15.32;;;;;;;3.26;95.19;102272.03;2107649;28;20032;-71
2022/01/27 04:49:15;;;;;;;34.97;15.90;;;;;;;3.22;95.44;102272.84;2107685;28;20028;-70
2022/01/27 04:50:15;;;;;;;37.50;15.75;;;;;;;3.20;95.74;102269.38;2107662;28;20103;-68
2022/01/27 04:51:18;;;;;;;37.57;16.40;;;;;;;3.18;95.63;102273.66;2107754;28;20031;-68
2022/01/27 04:52:18;;;;;;;33.85;15.90;;;;;;;3.16;96.19;102272.75;2107861;28;20385;-68
2022/01/27 04:53:29;;;;;;;32.03;14.23;;;;;;;3.14;95.86;102259.84;2107701;28;20035;-69
2022/01/27 04:54:52;;;;;;;30.35;16.88;;;;;;;3.19;95.73;102272.81;2107046;28;20028;-68
2022/01/27 04:55:55;;;;;;;29.98;14.25;;;;;;;3.18;95.75;102266.78;2107142;28;20040;-67
2022/01/27 04:56:59;;;;;;;33.85;14.85;;;;;;;3.19;96.04;102260.75;2107551;28;20019;-67
2022/01/27 04:58:13;;;;;;;32.13;16.38;;;;;;;3.19;95.95;102268.50;2107588;28;20110;-66
2022/01/27 04:59:19;;;;;;;25.20;14.63;;;;;;;3.21;95.72;102265.94;2107627;28;20024;-68
2022/01/27 05:00:19;;;;;;;32.38;15.73;;;;;;;3.18;95.72;102268.50;2107550;28;20024;-71
2022/01/27 05:01:25;;;;;;;28.50;14.52;;;;;;;3.15;96.00;102271.03;2106963;28;20653;-71
2022/01/27 05:03:53;;;;;;;33.13;14.93;;;;;;;3.13;96.26;102258.13;2107101;28;20032;-67
2022/01/27 05:04:53;;;;;;;30.92;15.68;;;;;;;3.18;96.33;102258.19;2107513;28;20039;-70
2022/01/27 05:05:56;;;;;;;30.83;14.93;;;;;;;3.13;96.33;102252.09;2107528;28;20027;-69
2022/01/27 05:06:56;;;;;;;32.42;15.07;;;;;;;3.15;96.34;102246.09;2106834;28;20145;-69
2022/01/27 05:07:59;;;;;;;29.43;14.73;;;;;;;3.17;96.38;102244.41;2106982;28;20019;-68
2022/01/27 05:09:00;;;;;;;33.58;17.52;;;;;;;3.16;96.26;102246.97;2107449;28;20457;-68
2022/01/27 05:10:09;;;;;;;29.13;16.40;;;;;;;3.16;96.17;102246.97;2107640;28;20066;-68
2022/01/27 05:12:38;;;;;;;29.92;13.93;;;;;;;3.13;96.49;102234.91;2107259;28;20047;-68
2022/01/27 05:13:52;;;;;;;31.50;14.95;;;;;;;3.19;96.33;102244.44;2107433;28;20031;-69
2022/01/27 05:14:54;;;;;;;31.95;14.02;;;;;;;3.17;96.33;102241.81;2107427;28;20027;-68
2022/01/27 05:15:54;;;;;;;32.75;17.30;;;;;;;3.18;96.23;102242.69;2106735;28;20470;-69
2022/01/27 05:16:54;;;;;;;32.80;16.03;;;;;;;3.17;96.25;102249.56;2106899;28;20024;-69
2022/01/27 05:17:55;;;;;;;34.67;15.90;;;;;;;3.17;96.39;102244.41;2107455;28;20293;-68
2022/01/27 05:18:55;;;;;;;31.87;15.70;;;;;;;3.14;96.79;102246.06;2107439;28;20477;-70
2022/01/27 05:19:56;;;;;;;31.48;15.13;;;;;;;3.15;96.79;102240.09;2107407;28;20103;-66
2022/01/27 05:20:56;;;;;;;35.17;15.13;;;;;;;3.17;96.45;102238.38;2107366;28;20066;-67
2022/01/27 05:21:56;;;;;;;33.00;15.93;;;;;;;3.16;96.33;102236.66;2106684;28;20461;-65
2022/01/27 05:22:56;;;;;;;34.20;15.60;;;;;;;3.14;96.23;102236.63;2106800;28;20016;-68
2022/01/27 05:23:57;;;;;;;32.20;15.00;;;;;;;3.12;96.81;102234.88;2106726;28;20016;-69
2022/01/27 05:24:58;;;;;;;29.83;15.57;;;;;;;3.12;96.40;102230.59;2106757;28;20078;-67
2022/01/27 05:25:58;;;;;;;35.00;16.45;;;;;;;3.15;96.73;102234.91;2107318;28;20032;-68